Time;durP1;ratioP1;P1;durP2;ratioP2;P2;SDS_P1;SDS_P2;PMS_P1;PMS_P2;Temp;Humidity;BMP_temperature;BMP_pressure;BME280_temperature;BME280_humidity;BME280_pressure;Samples;Min_cycle;Max_cycle;Signal;HPM_P1;HPM_P2
2021/01/08 00:02:24;;;;;;;16.53;15.13;;;;;;;;;;5015656;28;20230;-88
2021/01/08 00:04:51;;;;;;;14.67;13.57;;;;;;;;;;5015718;28;20230;-89
2021/01/08 00:07:20;;;;;;;14.83;13.67;;;;;;;;;;5016467;28;20181;-90
2021/01/08 00:09:47;;;;;;;16.43;15.00;;;;;;;;;;5016342;28;20180;-89
2021/01/08 00:12:21;;;;;;;14.70;13.47;;;;;;;;;;5033422;28;20180;-90
2021/01/08 00:14:49;;;;;;;15.47;14.17;;;;;;;;;;5015303;28;20217;-89
2021/01/08 00:17:21;;;;;;;14.90;13.80;;;;;;;;;;5033146;28;20176;-89
2021/01/08 00:19:51;;;;;;;15.10;13.90;;;;;;;;;;5015843;28;20176;-89
2021/01/08 00:22:24;;;;;;;15.70;14.40;;;;;;;;;;5015379;28;20652;-89
2021/01/08 00:24:55;;;;;;;16.30;14.90;;;;;;;;;;5015855;28;20658;-89
2021/01/08 00:27:28;;;;;;;15.40;14.00;;;;;;;;;;5033375;28;20198;-89
2021/01/08 00:30:00;;;;;;;15.40;14.20;;;;;;;;;;5033277;28;20180;-89
2021/01/08 00:32:31;;;;;;;15.23;13.83;;;;;;;;;;5015211;28;20634;-90
2021/01/08 00:35:01;;;;;;;14.70;13.57;;;;;;;;;;5015451;28;20276;-90
2021/01/08 00:37:34;;;;;;;16.10;14.80;;;;;;;;;;5015671;28;20176;-89
2021/01/08 00:40:04;;;;;;;15.70;14.40;;;;;;;;;;5015901;28;20168;-90
2021/01/08 00:42:36;;;;;;;16.30;14.90;;;;;;;;;;5015304;28;20174;-90
2021/01/08 00:45:11;;;;;;;15.03;13.83;;;;;;;;;;5015082;28;20200;-90
2021/01/08 00:47:45;;;;;;;15.40;14.20;;;;;;;;;;5016184;28;20172;-89
2021/01/08 00:50:17;;;;;;;14.90;13.70;;;;;;;;;;5015303;28;20172;-90
2021/01/08 00:52:48;;;;;;;15.63;14.33;;;;;;;;;;5015042;28;20199;-90
2021/01/08 00:55:20;;;;;;;15.87;14.57;;;;;;;;;;5015714;28;20538;-90
2021/01/08 00:57:49;;;;;;;16.27;14.77;;;;;;;;;;5016897;28;20716;-89
2021/01/08 01:00:18;;;;;;;15.50;14.17;;;;;;;;;;5036464;28;20254;-89
2021/01/08 01:02:49;;;;;;;15.57;14.27;;;;;;;;;;5018915;28;20210;-89
2021/01/08 01:05:32;;;;;;;15.40;14.20;;;;;;;;;;5018594;28;20326;-89
2021/01/08 01:08:05;;;;;;;15.80;14.40;;;;;;;;;;5036739;28;20172;-89
2021/01/08 01:10:36;;;;;;;16.33;14.83;;;;;;;;;;5018830;28;20255;-89
2021/01/08 01:13:03;;;;;;;16.00;14.80;;;;;;;;;;5018486;28;20210;-88
2021/01/08 01:15:33;;;;;;;16.50;15.20;;;;;;;;;;5018495;28;20744;-88
2021/01/08 01:18:04;;;;;;;15.50;14.20;;;;;;;;;;5036490;28;20203;-88
2021/01/08 01:20:33;;;;;;;15.17;13.97;;;;;;;;;;5019270;28;20181;-89
2021/01/08 01:23:05;;;;;;;16.60;15.20;;;;;;;;;;5018428;28;20183;-89
2021/01/08 01:25:37;;;;;;;15.47;14.17;;;;;;;;;;5018902;28;20207;-91
2021/01/08 01:28:11;;;;;;;15.57;14.30;;;;;;;;;;5018402;28;20261;-89
2021/01/08 01:30:41;;;;;;;15.73;14.33;;;;;;;;;;5018574;28;20201;-89
2021/01/08 01:33:08;;;;;;;14.63;13.37;;;;;;;;;;5018085;28;20242;-89
2021/01/08 01:35:39;;;;;;;14.50;13.30;;;;;;;;;;5018197;28;20736;-90
2021/01/08 01:38:11;;;;;;;15.00;13.80;;;;;;;;;;5018032;28;20178;-90
2021/01/08 01:40:44;;;;;;;15.03;13.73;;;;;;;;;;5035804;28;20651;-89
2021/01/08 01:43:19;;;;;;;15.33;13.97;;;;;;;;;;5017937;28;20182;-89
2021/01/08 01:45:46;;;;;;;15.43;14.23;;;;;;;;;;5017938;28;20289;-89
2021/01/08 01:48:18;;;;;;;14.70;13.40;;;;;;;;;;5035693;28;20187;-89
2021/01/08 01:50:49;;;;;;;15.33;14.13;;;;;;;;;;5017829;28;20599;-89
2021/01/08 01:53:20;;;;;;;15.87;14.50;;;;;;;;;;5017592;28;20258;-90
2021/01/08 01:55:50;;;;;;;15.90;14.50;;;;;;;;;;5017978;28;20550;-90
2021/01/08 01:58:22;;;;;;;15.27;13.97;;;;;;;;;;5017756;28;20178;-90
2021/01/08 02:00:51;;;;;;;16.23;14.73;;;;;;;;;;5017748;28;20179;-90
2021/01/08 02:03:23;;;;;;;14.93;13.63;;;;;;;;;;5017791;28;20185;-90
2021/01/08 02:05:55;;;;;;;15.23;13.87;;;;;;;;;;5035243;28;20219;-90
2021/01/08 02:08:30;;;;;;;13.33;12.03;;;;;;;;;;5016795;28;20372;-90
2021/01/08 02:11:04;;;;;;;14.57;13.37;;;;;;;;;;5017549;28;20614;-90
2021/01/08 02:13:40;;;;;;;15.77;14.37;;;;;;;;;;5017414;28;20227;-90
2021/01/08 02:16:14;;;;;;;15.67;14.37;;;;;;;;;;5017703;28;20196;-90
2021/01/08 02:18:45;;;;;;;14.50;13.30;;;;;;;;;;5017983;28;20176;-90
2021/01/08 02:21:17;;;;;;;15.53;14.10;;;;;;;;;;5017303;28;20181;-90
2021/01/08 02:23:49;;;;;;;15.67;14.37;;;;;;;;;;5017474;28;20187;-90
2021/01/08 02:26:21;;;;;;;16.07;14.67;;;;;;;;;;5017401;28;20207;-90
2021/01/08 02:28:54;;;;;;;15.70;14.40;;;;;;;;;;5017412;28;20191;-89
2021/01/08 02:31:23;;;;;;;16.17;14.77;;;;;;;;;;5017097;28;20178;-90
2021/01/08 02:33:56;;;;;;;15.90;14.40;;;;;;;;;;5016946;28;20206;-90
2021/01/08 02:36:30;;;;;;;15.27;13.97;;;;;;;;;;5017009;28;20282;-90
2021/01/08 02:38:57;;;;;;;15.97;14.70;;;;;;;;;;5016947;28;20183;-90
2021/01/08 02:41:29;;;;;;;16.03;14.63;;;;;;;;;;5034679;28;20171;-90
2021/01/08 02:43:57;;;;;;;15.13;13.83;;;;;;;;;;5017063;28;20205;-90
2021/01/08 02:46:23;;;;;;;15.47;14.03;;;;;;;;;;5034515;28;20224;-90
2021/01/08 02:48:55;;;;;;;17.00;15.50;;;;;;;;;;5016927;28;20217;-90
2021/01/08 02:51:27;;;;;;;15.67;14.37;;;;;;;;;;5016841;28;20181;-90
2021/01/08 02:53:58;;;;;;;15.43;14.23;;;;;;;;;;5016724;28;20236;-90
2021/01/08 02:56:31;;;;;;;15.40;14.10;;;;;;;;;;5016605;28;20218;-90
2021/01/08 02:59:04;;;;;;;16.40;15.00;;;;;;;;;;5016630;28;20688;-90
2021/01/08 03:01:40;;;;;;;15.70;14.40;;;;;;;;;;5016599;28;20175;-90
2021/01/08 03:04:09;;;;;;;16.57;15.00;;;;;;;;;;5016481;28;20556;-90
2021/01/08 03:06:41;;;;;;;16.73;15.23;;;;;;;;;;5017255;28;20188;-90
2021/01/08 03:09:09;;;;;;;17.17;15.67;;;;;;;;;;5016344;28;20686;-90
2021/01/08 03:11:41;;;;;;;15.90;14.40;;;;;;;;;;5016252;28;20185;-90
2021/01/08 03:14:15;;;;;;;16.23;14.87;;;;;;;;;;5016165;28;20290;-90
2021/01/08 03:16:42;;;;;;;17.00;15.47;;;;;;;;;;5017469;28;20176;-90
2021/01/08 03:19:15;;;;;;;16.37;15.00;;;;;;;;;;5016153;28;20699;-90
2021/01/08 03:21:49;;;;;;;16.93;15.43;;;;;;;;;;5016504;28;20222;-90
2021/01/08 03:24:21;;;;;;;16.97;15.53;;;;;;;;;;5016370;28;20692;-90
2021/01/08 03:26:54;;;;;;;17.10;15.70;;;;;;;;;;5016109;28;20205;-90
2021/01/08 03:29:24;;;;;;;17.57;16.07;;;;;;;;;;5016267;28;20584;-90
2021/01/08 03:31:54;;;;;;;17.83;16.20;;;;;;;;;;5016194;28;20188;-90
2021/01/08 03:34:21;;;;;;;17.97;16.33;;;;;;;;;;5016109;28;20214;-90
2021/01/08 03:36:52;;;;;;;19.33;17.53;;;;;;;;;;5015958;28;20188;-91
2021/01/08 03:39:19;;;;;;;19.07;17.27;;;;;;;;;;5033786;28;20656;-90
2021/01/08 03:41:50;;;;;;;17.63;16.13;;;;;;;;;;5015904;28;20310;-90
2021/01/08 03:44:20;;;;;;;17.37;15.87;;;;;;;;;;5016178;28;20187;-90
2021/01/08 03:46:51;;;;;;;17.00;15.60;;;;;;;;;;5016877;28;20195;-90
2021/01/08 03:49:21;;;;;;;18.17;16.53;;;;;;;;;;5015821;28;20184;-90
2021/01/08 03:51:52;;;;;;;18.20;16.70;;;;;;;;;;5016561;28;20544;-91
2021/01/08 03:54:23;;;;;;;17.70;16.23;;;;;;;;;;5015686;28;20204;-91
2021/01/08 03:56:54;;;;;;;17.90;16.30;;;;;;;;;;5015947;28;20178;-90
2021/01/08 03:59:21;;;;;;;19.30;17.50;;;;;;;;;;5033617;28;20613;-90
2021/01/08 04:01:51;;;;;;;18.33;16.67;;;;;;;;;;5015958;28;20202;-90
2021/01/08 04:04:21;;;;;;;20.03;18.27;;;;;;;;;;5015480;28;20183;-90
2021/01/08 04:06:55;;;;;;;18.07;16.50;;;;;;;;;;5016074;28;20190;-90
2021/01/08 04:09:29;;;;;;;18.87;17.27;;;;;;;;;;5016668;28;20261;-90
2021/01/08 04:12:01;;;;;;;19.43;17.73;;;;;;;;;;5015651;28;20180;-90
2021/01/08 04:14:27;;;;;;;18.13;16.43;;;;;;;;;;5015800;28;20266;-90
2021/01/08 04:16:59;;;;;;;18.97;17.27;;;;;;;;;;5015843;28;20187;-90
2021/01/08 04:19:28;;;;;;;19.10;17.50;;;;;;;;;;5015898;28;20261;-90
2021/01/08 04:21:59;;;;;;;20.90;18.80;;;;;;;;;;5015782;28;20177;-90
2021/01/08 04:24:30;;;;;;;19.60;17.87;;;;;;;;;;5015293;28;20202;-90
2021/01/08 04:27:04;;;;;;;19.40;17.70;;;;;;;;;;5015549;28;20640;-90
2021/01/08 04:29:36;;;;;;;20.17;18.27;;;;;;;;;;5015809;28;20176;-90
2021/01/08 04:32:02;;;;;;;19.43;17.53;;;;;;;;;;5016231;28;20260;-90
2021/01/08 04:34:34;;;;;;;20.50;18.67;;;;;;;;;;5019320;28;20211;-89
2021/01/08 04:37:06;;;;;;;20.17;18.27;;;;;;;;;;5019246;28;20181;-90
2021/01/08 04:39:35;;;;;;;20.27;18.37;;;;;;;;;;5036884;28;20181;-90
2021/01/08 04:42:08;;;;;;;20.13;18.23;;;;;;;;;;5019270;28;20186;-90
2021/01/08 04:44:34;;;;;;;21.57;19.87;;;;;;;;;;5019153;28;20201;-89
2021/01/08 04:47:08;;;;;;;23.07;21.07;;;;;;;;;;5019057;28;20650;-89
2021/01/08 04:49:38;;;;;;;24.43;22.23;;;;;;;;;;5019277;28;20184;-89
2021/01/08 04:52:12;;;;;;;24.00;22.00;;;;;;;;;;5036864;28;20183;-90
2021/01/08 04:54:44;;;;;;;24.87;22.57;;;;;;;;;;5018680;28;20242;-90
2021/01/08 04:57:17;;;;;;;24.20;22.00;;;;;;;;;;5019022;28;20580;-89
2021/01/08 04:59:47;;;;;;;24.43;22.30;;;;;;;;;;5018720;28;20181;-90
2021/01/08 05:02:16;;;;;;;23.53;21.33;;;;;;;;;;5036414;28;20181;-90
2021/01/08 05:04:48;;;;;;;23.83;21.67;;;;;;;;;;5018870;28;20300;-90
2021/01/08 05:07:20;;;;;;;24.80;22.43;;;;;;;;;;5019670;28;20195;-90
2021/01/08 05:09:50;;;;;;;25.43;23.13;;;;;;;;;;5019345;28;20205;-90
2021/01/08 05:12:21;;;;;;;24.10;21.90;;;;;;;;;;5020175;28;20189;-90
2021/01/08 05:14:50;;;;;;;23.37;21.27;;;;;;;;;;5019288;28;20696;-90
2021/01/08 05:17:31;;;;;;;22.87;20.77;;;;;;;;;;5019125;28;20179;-90
2021/01/08 05:20:01;;;;;;;24.13;21.80;;;;;;;;;;5018821;28;20263;-90
2021/01/08 05:22:34;;;;;;;22.87;20.80;;;;;;;;;;5018840;28;20268;-90
2021/01/08 05:25:11;;;;;;;23.40;21.33;;;;;;;;;;5018692;28;20203;-90
2021/01/08 05:27:41;;;;;;;24.33;22.13;;;;;;;;;;5036665;28;20262;-90
2021/01/08 05:30:21;;;;;;;23.60;21.33;;;;;;;;;;5036702;28;20255;-90
2021/01/08 05:33:01;;;;;;;25.30;22.90;;;;;;;;;;5018734;28;20242;-90
2021/01/08 05:35:32;;;;;;;24.27;21.97;;;;;;;;;;5019218;28;20201;-90
2021/01/08 05:38:12;;;;;;;24.07;21.77;;;;;;;;;;5019286;28;20189;-90
2021/01/08 05:40:44;;;;;;;23.97;21.87;;;;;;;;;;5018688;28;20263;-90
2021/01/08 05:43:15;;;;;;;24.93;22.47;;;;;;;;;;5018281;28;20194;-90
2021/01/08 05:45:44;;;;;;;24.23;21.83;;;;;;;;;;5018688;28;20200;-90
2021/01/08 05:48:17;;;;;;;24.23;21.77;;;;;;;;;;5018535;28;20186;-90
2021/01/08 05:50:49;;;;;;;24.90;22.47;;;;;;;;;;5018486;28;20181;-90
2021/01/08 05:53:20;;;;;;;23.90;21.50;;;;;;;;;;5018421;28;20236;-90
2021/01/08 05:55:51;;;;;;;24.93;22.43;;;;;;;;;;5018286;28;20225;-90
2021/01/08 05:58:27;;;;;;;25.10;22.80;;;;;;;;;;5018635;28;20659;-90
2021/01/08 06:01:01;;;;;;;22.23;20.20;;;;;;;;;;5036066;28;20175;-90
2021/01/08 06:03:33;;;;;;;23.27;20.97;;;;;;;;;;5018451;28;20187;-89
2021/01/08 06:06:03;;;;;;;24.73;22.23;;;;;;;;;;5018267;28;20215;-89
2021/01/08 06:08:35;;;;;;;24.27;21.87;;;;;;;;;;5017989;28;20227;-89
2021/01/08 06:11:08;;;;;;;24.33;22.00;;;;;;;;;;5018241;28;20263;-90
2021/01/08 06:13:41;;;;;;;23.53;21.30;;;;;;;;;;5017639;28;20274;-90
2021/01/08 06:16:15;;;;;;;24.60;22.20;;;;;;;;;;5017973;28;20583;-90
2021/01/08 06:18:44;;;;;;;23.60;21.23;;;;;;;;;;5017837;28;20642;-90
2021/01/08 06:21:19;;;;;;;25.63;23.10;;;;;;;;;;5018898;28;20183;-90
2021/01/08 06:23:51;;;;;;;24.23;21.87;;;;;;;;;;5017847;28;20694;-90
2021/01/08 06:26:21;;;;;;;25.13;22.63;;;;;;;;;;5035677;28;20229;-89
2021/01/08 06:28:51;;;;;;;24.80;22.40;;;;;;;;;;5017829;28;20183;-90
2021/01/08 06:31:37;;;;;;;26.23;23.63;;;;;;;;;;5017411;28;20187;-89
2021/01/08 06:34:10;;;;;;;25.27;22.77;;;;;;;;;;5017639;28;20200;-90
2021/01/08 06:36:50;;;;;;;25.67;23.07;;;;;;;;;;5017829;28;20172;-90
2021/01/08 06:39:24;;;;;;;27.07;24.37;;;;;;;;;;5035718;28;20172;-90
2021/01/08 06:41:53;;;;;;;31.10;24.27;;;;;;;;;;5017970;28;20184;-90
2021/01/08 06:44:26;;;;;;;26.27;23.33;;;;;;;;;;5017402;28;20180;-90
2021/01/08 06:46:57;;;;;;;28.10;25.20;;;;;;;;;;5035293;28;20231;-90
2021/01/08 06:49:32;;;;;;;27.80;24.80;;;;;;;;;;5035117;28;20674;-90
2021/01/08 06:52:03;;;;;;;29.93;25.60;;;;;;;;;;5017519;28;20177;-89
2021/01/08 06:54:29;;;;;;;28.37;23.50;;;;;;;;;;5016722;28;20247;-90
2021/01/08 06:57:00;;;;;;;29.90;24.63;;;;;;;;;;5017866;28;20190;-89
2021/01/08 06:59:35;;;;;;;32.27;24.93;;;;;;;;;;5017505;28;20176;-90
2021/01/08 07:02:21;;;;;;;27.97;24.90;;;;;;;;;;5017510;28;20180;-89
2021/01/08 07:04:53;;;;;;;28.83;24.53;;;;;;;;;;5017030;28;20217;-90
2021/01/08 07:07:35;;;;;;;30.77;24.30;;;;;;;;;;5016946;28;20192;-90
2021/01/08 07:10:07;;;;;;;31.07;24.23;;;;;;;;;;5017057;28;20193;-90
2021/01/08 07:12:40;;;;;;;29.50;23.50;;;;;;;;;;5035083;28;20239;-90
2021/01/08 07:15:11;;;;;;;30.00;25.00;;;;;;;;;;5034461;28;20189;-90
2021/01/08 07:17:43;;;;;;;28.53;25.43;;;;;;;;;;5016977;28;20637;-89
2021/01/08 07:20:13;;;;;;;27.77;24.50;;;;;;;;;;5016718;28;20168;-90
2021/01/08 07:22:41;;;;;;;31.63;25.60;;;;;;;;;;5016928;28;20218;-90
2021/01/08 07:25:15;;;;;;;29.60;26.53;;;;;;;;;;5016615;28;20198;-89
2021/01/08 07:27:45;;;;;;;53.13;36.50;;;;;;;;;;5016827;28;20179;-90
2021/01/08 07:30:14;;;;;;;43.50;32.17;;;;;;;;;;5016673;28;20597;-90
2021/01/08 07:32:46;;;;;;;37.93;30.00;;;;;;;;;;5017501;28;20177;-90
2021/01/08 07:35:35;;;;;;;39.13;30.70;;;;;;;;;;5016455;28;20442;-90
2021/01/08 07:38:18;;;;;;;47.07;31.43;;;;;;;;;;5034035;28;20589;-90
2021/01/08 07:40:55;;;;;;;40.57;31.03;;;;;;;;;;5016360;28;20332;-90
2021/01/08 07:43:39;;;;;;;40.60;31.47;;;;;;;;;;5016610;28;20274;-90
2021/01/08 07:46:11;;;;;;;37.27;28.50;;;;;;;;;;5016360;28;20225;-89
2021/01/08 07:48:46;;;;;;;34.77;27.87;;;;;;;;;;5016374;28;20176;-89
2021/01/08 07:51:18;;;;;;;28.93;25.37;;;;;;;;;;5016059;28;20183;-89
2021/01/08 07:53:50;;;;;;;30.93;25.17;;;;;;;;;;5016179;28;20254;-90
2021/01/08 07:56:23;;;;;;;30.50;24.77;;;;;;;;;;5016242;28;20564;-90
2021/01/08 07:59:00;;;;;;;35.67;25.37;;;;;;;;;;5016066;28;20257;-89
2021/01/08 08:01:35;;;;;;;32.13;24.83;;;;;;;;;;5016423;28;20229;-90
2021/01/08 08:04:04;;;;;;;32.00;23.87;;;;;;;;;;5033580;28;20264;-89
2021/01/08 08:06:36;;;;;;;31.20;24.27;;;;;;;;;;5017627;28;20197;-89
2021/01/08 08:09:04;;;;;;;28.43;23.53;;;;;;;;;;5020898;28;20761;-89
2021/01/08 08:11:36;;;;;;;30.63;22.97;;;;;;;;;;5037769;28;20180;-90
2021/01/08 08:14:09;;;;;;;25.60;22.43;;;;;;;;;;5020492;28;20207;-90
2021/01/08 08:16:36;;;;;;;31.63;23.07;;;;;;;;;;5019827;28;20176;-90
2021/01/08 08:19:10;;;;;;;30.77;22.60;;;;;;;;;;5020238;28;20179;-90
2021/01/08 08:21:37;;;;;;;30.17;23.47;;;;;;;;;;5019841;28;20168;-89
2021/01/08 08:24:11;;;;;;;29.33;23.37;;;;;;;;;;5020105;28;20223;-90
2021/01/08 08:26:44;;;;;;;30.30;23.27;;;;;;;;;;5020695;28;20177;-89
2021/01/08 08:29:16;;;;;;;33.70;23.67;;;;;;;;;;5019851;28;20637;-89
2021/01/08 08:31:49;;;;;;;30.57;24.20;;;;;;;;;;5019786;28;20667;-89
2021/01/08 08:34:31;;;;;;;28.87;23.17;;;;;;;;;;5019228;28;20249;-89
2021/01/08 08:37:12;;;;;;;32.80;23.50;;;;;;;;;;5019292;28;20179;-89
2021/01/08 08:39:45;;;;;;;28.10;24.10;;;;;;;;;;5019742;28;20179;-89
2021/01/08 08:42:21;;;;;;;30.20;23.63;;;;;;;;;;5019913;28;20338;-88
2021/01/08 08:44:55;;;;;;;29.63;23.47;;;;;;;;;;5019511;28;20223;-89
2021/01/08 08:47:28;;;;;;;33.80;23.47;;;;;;;;;;5020103;28;20641;-89
2021/01/08 08:50:00;;;;;;;33.43;23.73;;;;;;;;;;5019889;28;20645;-90
2021/01/08 08:52:32;;;;;;;33.77;23.20;;;;;;;;;;5019685;28;20185;-89
2021/01/08 08:55:00;;;;;;;28.03;23.00;;;;;;;;;;5019322;28;20277;-89
2021/01/08 08:57:31;;;;;;;28.20;22.73;;;;;;;;;;5019185;28;20552;-89
2021/01/08 09:00:00;;;;;;;25.40;21.97;;;;;;;;;;5019677;28;20169;-89
2021/01/08 09:02:31;;;;;;;28.60;22.47;;;;;;;;;;5019255;28;20186;-89
2021/01/08 09:05:06;;;;;;;28.63;22.10;;;;;;;;;;5018416;28;20214;-89
2021/01/08 09:07:40;;;;;;;26.97;22.70;;;;;;;;;;5018604;28;20182;-89
2021/01/08 09:10:13;;;;;;;28.00;21.67;;;;;;;;;;5036422;28;20180;-89
2021/01/08 09:12:47;;;;;;;27.20;21.97;;;;;;;;;;5036409;28;20180;-89
2021/01/08 09:15:31;;;;;;;24.87;22.30;;;;;;;;;;5018820;28;20554;-89
2021/01/08 09:18:11;;;;;;;26.17;23.20;;;;;;;;;;5018086;28;20173;-89
2021/01/08 09:20:46;;;;;;;29.17;23.17;;;;;;;;;;5019821;28;20230;-89
2021/01/08 09:23:21;;;;;;;25.93;21.97;;;;;;;;;;5018601;28;20185;-89
2021/01/08 09:25:57;;;;;;;27.57;22.30;;;;;;;;;;5036539;28;20198;-89
2021/01/08 09:28:23;;;;;;;27.47;23.03;;;;;;;;;;5018742;28;20184;-89
2021/01/08 09:30:56;;;;;;;28.47;22.83;;;;;;;;;;5036025;28;20264;-89
2021/01/08 09:33:25;;;;;;;28.17;22.20;;;;;;;;;;5018512;28;20273;-88
2021/01/08 09:35:58;;;;;;;29.90;22.40;;;;;;;;;;5018397;28;20639;-89
2021/01/08 09:38:36;;;;;;;30.20;23.07;;;;;;;;;;5019012;28;20181;-89
2021/01/08 09:41:08;;;;;;;28.97;23.57;;;;;;;;;;5018323;28;20179;-89
2021/01/08 09:43:41;;;;;;;27.27;22.67;;;;;;;;;;5018358;28;20178;-89
2021/01/08 09:46:15;;;;;;;24.53;21.53;;;;;;;;;;5017933;28;20201;-89
2021/01/08 09:48:48;;;;;;;26.17;23.33;;;;;;;;;;5018266;28;20180;-89
2021/01/08 09:51:21;;;;;;;25.13;22.33;;;;;;;;;;5018176;28;20272;-90
2021/01/08 09:54:01;;;;;;;26.67;23.73;;;;;;;;;;5017677;28;20215;-89
2021/01/08 09:56:31;;;;;;;28.47;23.37;;;;;;;;;;5017796;28;20587;-89
2021/01/08 09:59:14;;;;;;;33.83;23.13;;;;;;;;;;5035625;28;20264;-89
2021/01/08 10:01:53;;;;;;;24.50;21.90;;;;;;;;;;5018242;28;20172;-87
2021/01/08 10:04:35;;;;;;;28.13;23.37;;;;;;;;;;5035593;28;20554;-89
2021/01/08 10:07:02;;;;;;;27.40;23.00;;;;;;;;;;5017448;28;20604;-89
2021/01/08 10:09:49;;;;;;;25.40;22.73;;;;;;;;;;5017481;28;20600;-89
2021/01/08 10:12:19;;;;;;;24.90;22.27;;;;;;;;;;5017332;28;20209;-88
2021/01/08 10:14:47;;;;;;;26.47;23.53;;;;;;;;;;5017963;28;20559;-89
2021/01/08 10:17:17;;;;;;;26.90;23.70;;;;;;;;;;5017278;28;20178;-90
2021/01/08 10:19:47;;;;;;;28.27;22.57;;;;;;;;;;5017346;28;20180;-89
2021/01/08 10:22:25;;;;;;;26.40;23.60;;;;;;;;;;5017382;28;20170;-89
2021/01/08 10:24:51;;;;;;;25.13;22.37;;;;;;;;;;5017226;28;20204;-89
2021/01/08 10:27:25;;;;;;;24.33;21.97;;;;;;;;;;5017306;28;20182;-88
2021/01/08 10:29:55;;;;;;;27.27;22.00;;;;;;;;;;5016262;28;20223;-89
2021/01/08 10:32:24;;;;;;;24.07;21.67;;;;;;;;;;5017416;28;20645;-89
2021/01/08 10:34:51;;;;;;;24.30;22.07;;;;;;;;;;5017099;28;20249;-89
2021/01/08 10:37:19;;;;;;;24.73;22.23;;;;;;;;;;5017044;28;20180;-89
2021/01/08 10:39:46;;;;;;;26.77;22.20;;;;;;;;;;5035077;28;20174;-88
2021/01/08 10:42:12;;;;;;;23.97;21.37;;;;;;;;;;5017060;28;20187;-88
2021/01/08 10:44:40;;;;;;;23.57;21.27;;;;;;;;;;5017009;28;20243;-88
2021/01/08 10:47:08;;;;;;;25.00;22.07;;;;;;;;;;5017156;28;20258;-88
2021/01/08 10:49:41;;;;;;;25.10;22.30;;;;;;;;;;5035084;28;20556;-88
2021/01/08 10:52:15;;;;;;;23.27;20.77;;;;;;;;;;5016725;28;20183;-88
2021/01/08 10:54:45;;;;;;;24.40;21.90;;;;;;;;;;5016783;28;20220;-88
2021/01/08 10:57:15;;;;;;;24.03;21.57;;;;;;;;;;5016818;28;20647;-89
2021/01/08 10:59:48;;;;;;;25.13;22.53;;;;;;;;;;5016532;28;20184;-88
2021/01/08 11:02:21;;;;;;;24.63;22.03;;;;;;;;;;5016878;28;20175;-89
2021/01/08 11:04:51;;;;;;;27.73;22.53;;;;;;;;;;5041355;22;20222;-87
2021/01/08 11:07:24;;;;;;;24.73;22.23;;;;;;;;;;5018142;28;20186;-88
2021/01/08 11:09:55;;;;;;;25.23;22.63;;;;;;;;;;5018251;28;20174;-88
2021/01/08 11:12:22;;;;;;;24.43;21.83;;;;;;;;;;5017582;28;20179;-88
2021/01/08 11:14:51;;;;;;;25.33;22.90;;;;;;;;;;5017416;28;20214;-88
2021/01/08 11:17:25;;;;;;;25.53;22.10;;;;;;;;;;5017743;28;20545;-88
2021/01/08 11:19:57;;;;;;;24.57;22.17;;;;;;;;;;5035828;28;20571;-88
2021/01/08 11:22:31;;;;;;;25.53;22.90;;;;;;;;;;5020593;28;20601;-85
2021/01/08 11:25:01;;;;;;;26.70;23.87;;;;;;;;;;5022990;28;20196;-86
2021/01/08 11:27:33;;;;;;;23.67;21.33;;;;;;;;;;5021622;28;20535;-86
2021/01/08 11:30:04;;;;;;;26.40;22.23;;;;;;;;;;5020956;28;20548;-86
2021/01/08 11:32:35;;;;;;;24.77;22.23;;;;;;;;;;5039316;28;20184;-87
2021/01/08 11:35:04;;;;;;;24.43;21.83;;;;;;;;;;5036724;28;20205;-88
2021/01/08 11:37:34;;;;;;;24.73;22.23;;;;;;;;;;5036660;28;20172;-88
2021/01/08 11:40:06;;;;;;;24.07;21.77;;;;;;;;;;5036454;28;20252;-87
2021/01/08 11:42:37;;;;;;;22.63;20.33;;;;;;;;;;5018476;28;20633;-87
2021/01/08 11:45:10;;;;;;;23.47;21.27;;;;;;;;;;5018591;28;20225;-88
2021/01/08 11:47:41;;;;;;;25.53;22.77;;;;;;;;;;5019433;28;20616;-88
2021/01/08 11:50:11;;;;;;;20.70;18.77;;;;;;;;;;5018967;28;20250;-88
2021/01/08 11:52:45;;;;;;;24.47;22.07;;;;;;;;;;5019960;28;20560;-88
2021/01/08 11:55:14;;;;;;;26.10;22.70;;;;;;;;;;5020193;28;20670;-88
2021/01/08 11:57:50;;;;;;;24.37;21.87;;;;;;;;;;5020089;28;20213;-86
2021/01/08 12:00:21;;;;;;;25.23;22.80;;;;;;;;;;5017818;28;20178;-88
2021/01/08 12:02:53;;;;;;;23.43;21.13;;;;;;;;;;5017397;28;20537;-87
2021/01/08 12:05:23;;;;;;;24.10;21.67;;;;;;;;;;5017679;28;20221;-87
2021/01/08 12:07:55;;;;;;;24.87;21.23;;;;;;;;;;5036281;28;20183;-88
2021/01/08 12:10:21;;;;;;;26.50;23.70;;;;;;;;;;5018403;28;20655;-88
2021/01/08 12:12:50;;;;;;;24.33;21.83;;;;;;;;;;5035184;28;20179;-88
2021/01/08 12:15:20;;;;;;;25.03;22.47;;;;;;;;;;5019071;28;20318;-88
2021/01/08 12:17:49;;;;;;;25.33;22.93;;;;;;;;;;5018742;28;20283;-87
2021/01/08 12:20:17;;;;;;;23.50;21.10;;;;;;;;;;5036749;28;20177;-88
2021/01/08 12:22:43;;;;;;;24.03;21.73;;;;;;;;;;5019743;28;20203;-87
2021/01/08 12:25:14;;;;;;;23.13;20.93;;;;;;;;;;5039019;28;20207;-87
2021/01/08 12:27:48;;;;;;;24.93;21.03;;;;;;;;;;5022917;28;20186;-86
2021/01/08 12:30:20;;;;;;;23.83;21.53;;;;;;;;;;5040401;28;20181;-86
2021/01/08 12:32:51;;;;;;;25.73;22.27;;;;;;;;;;5039050;28;20184;-87
2021/01/08 12:35:20;;;;;;;24.93;22.50;;;;;;;;;;5017368;28;20193;-88
2021/01/08 12:37:51;;;;;;;24.27;21.93;;;;;;;;;;5036326;28;20178;-87
2021/01/08 12:40:24;;;;;;;26.20;23.70;;;;;;;;;;5017740;28;20185;-87
2021/01/08 12:42:55;;;;;;;24.50;22.03;;;;;;;;;;5017701;28;20578;-87
2021/01/08 12:45:26;;;;;;;23.30;21.10;;;;;;;;;;5019793;28;20286;-87
2021/01/08 12:47:58;;;;;;;24.00;21.73;;;;;;;;;;5037776;28;20175;-87
2021/01/08 12:50:30;;;;;;;23.43;21.20;;;;;;;;;;5020298;28;20173;-88
2021/01/08 12:53:01;;;;;;;22.83;20.57;;;;;;;;;;5015981;28;20316;-88
2021/01/08 12:55:28;;;;;;;22.67;20.57;;;;;;;;;;5020361;28;20568;-88
2021/01/08 12:57:55;;;;;;;21.87;19.73;;;;;;;;;;5019696;28;20175;-88
2021/01/08 13:00:22;;;;;;;22.00;20.00;;;;;;;;;;5019267;28;20258;-88
2021/01/08 13:02:50;;;;;;;22.63;20.43;;;;;;;;;;5018862;28;20183;-88
2021/01/08 13:05:16;;;;;;;23.43;21.03;;;;;;;;;;5036388;28;20266;-88
2021/01/08 13:07:46;;;;;;;19.13;17.17;;;;;;;;;;5036647;28;20632;-89
2021/01/08 13:10:13;;;;;;;21.87;19.67;;;;;;;;;;5018934;28;20177;-88
2021/01/08 13:12:41;;;;;;;20.40;18.47;;;;;;;;;;5018969;28;20181;-88
2021/01/08 13:15:11;;;;;;;22.30;19.90;;;;;;;;;;5018366;28;20218;-89
2021/01/08 13:17:40;;;;;;;22.17;20.00;;;;;;;;;;5036336;28;20169;-88
2021/01/08 13:20:09;;;;;;;21.33;19.33;;;;;;;;;;5036149;28;20629;-88
2021/01/08 13:22:39;;;;;;;22.10;20.03;;;;;;;;;;5018501;28;20709;-88
2021/01/08 13:25:06;;;;;;;22.87;20.77;;;;;;;;;;5018622;28;20200;-88
2021/01/08 13:27:35;;;;;;;24.50;22.03;;;;;;;;;;5018829;28;20178;-88
2021/01/08 13:30:07;;;;;;;23.50;21.30;;;;;;;;;;5018648;28;20179;-88
2021/01/08 13:32:39;;;;;;;23.77;21.57;;;;;;;;;;5018392;28;20667;-88
2021/01/08 13:35:11;;;;;;;23.57;21.47;;;;;;;;;;5018959;28;20206;-88
2021/01/08 13:37:41;;;;;;;23.97;21.73;;;;;;;;;;5018195;28;20633;-90
2021/01/08 13:40:14;;;;;;;21.33;19.27;;;;;;;;;;5035928;28;20170;-88
2021/01/08 13:42:44;;;;;;;23.53;21.30;;;;;;;;;;5018068;28;20282;-88
2021/01/08 13:45:15;;;;;;;22.27;20.27;;;;;;;;;;5035556;28;20204;-88
2021/01/08 13:47:46;;;;;;;22.10;20.00;;;;;;;;;;5035710;28;20178;-88
2021/01/08 13:50:17;;;;;;;22.57;20.37;;;;;;;;;;5017833;28;20647;-88
2021/01/08 13:52:49;;;;;;;21.50;19.50;;;;;;;;;;5017813;28;20175;-88
2021/01/08 13:55:22;;;;;;;23.33;20.90;;;;;;;;;;5017536;28;20561;-88
2021/01/08 13:57:57;;;;;;;22.10;19.97;;;;;;;;;;5035452;28;20173;-88
2021/01/08 14:00:31;;;;;;;21.40;19.40;;;;;;;;;;5035519;28;20545;-88
2021/01/08 14:03:03;;;;;;;21.10;19.20;;;;;;;;;;5035243;28;20174;-88
2021/01/08 14:05:30;;;;;;;21.07;19.13;;;;;;;;;;5034996;28;20213;-88
2021/01/08 14:08:01;;;;;;;21.83;19.63;;;;;;;;;;5017546;28;20178;-88
2021/01/08 14:10:31;;;;;;;21.67;19.53;;;;;;;;;;5035337;28;20649;-88
2021/01/08 14:13:04;;;;;;;19.83;18.13;;;;;;;;;;5018233;28;20236;-88
2021/01/08 14:15:39;;;;;;;19.90;18.00;;;;;;;;;;5017069;28;20193;-88
2021/01/08 14:18:14;;;;;;;19.63;17.83;;;;;;;;;;5017399;28;20179;-89
2021/01/08 14:20:49;;;;;;;19.20;17.43;;;;;;;;;;5035076;28;20264;-88
2021/01/08 14:23:21;;;;;;;20.73;18.63;;;;;;;;;;5034985;28;20169;-88
2021/01/08 14:25:51;;;;;;;20.90;18.90;;;;;;;;;;5016924;28;20197;-89
2021/01/08 14:28:18;;;;;;;19.20;17.40;;;;;;;;;;5017057;28;20601;-88
2021/01/08 14:30:48;;;;;;;19.63;17.53;;;;;;;;;;5017865;28;20170;-88
2021/01/08 14:33:16;;;;;;;21.27;19.43;;;;;;;;;;5034646;28;20624;-88
2021/01/08 14:35:45;;;;;;;20.77;18.97;;;;;;;;;;5034690;28;20246;-88
2021/01/08 14:38:16;;;;;;;21.00;19.03;;;;;;;;;;5034516;28;20632;-88
2021/01/08 14:40:49;;;;;;;21.77;19.67;;;;;;;;;;5034653;28;20170;-88
2021/01/08 14:43:21;;;;;;;20.97;18.97;;;;;;;;;;5017146;28;20202;-89